Aeroporto :
LOGIN :

Iscrizione | Disclaimer

   EN    FR    IT 

 










Sommario :    VFR   VFR Marginale   IFR   IFR Intensivo   IFR Molto Intensivo
Visibilità : 
Base nubi : 
>= 8 km
>= 3000ft
5 / 8 km
1000 / 3000 ft
1500m / 5 km
500 / 1000 ft
800 / 1500m
200 / 500 ft
< 800m
< 200 ft
Simboli :   Temporali  Nebbia  Neve Forte  Precipitazioni Forti  Vento > 20 kt
SIGMETs :   Varie  Temporali  Ghiacco  Turbolenza  Onda orograficha  Ceneri Vulcaniche






- Altitudine del aeroporto : 14 ft
- Codice IATA : BRE


EDDW - Bremen Neuenland

ULTIMO METAR :
  • 101620Z 31012KT 9999 -SHRA BKN024 15/10 Q1015 NOSIG

METARs OBSOLETI :
  • 101550Z 30011KT 9999 VCSH FEW024 15/10 Q1014 NOSIG
  • 101520Z 30010KT 9999 VCSH FEW020 16/10 Q1014 NOSIG
  • 101450Z 29010KT 9999 FEW018 SCT038 15/11 Q1014 NOSIG
  • 101420Z 31013KT 9999 -SHRA SCT020 BKN040 15/11 Q1013 NOSIG
  • 101350Z 31014KT 9999 FEW019 BKN047 16/11 Q1013 NOSIG

TAF TAF EDDW
Valido dal 10 a 12 ore il 11 a 12 ore UTC


101100Z 1012/1112 33012KT 9999 BKN009
BECMG 1012/1014 SCT012 BKN020
BECMG 1018/1021 28005KT
BECMG 1108/1110 28010KT



MetMap, La meteo Aeronautica in un colpo d'occhio ! - Copyright ORBIFLY Dicembre 2007 - Disclaimer

ORBIFLY MET'MAP TEAM :

Programmazione e sviluppo : Alexandra Zaïnal
Concezione : Baudouin d'Aumeries
Aiuto per la programmazione : Marc-Olivier Méhu
Supporto tecnico e logistico : Manuel Goepfert
Aiuto per la traduzione : Arnaldo La Scala

Contatto : metmap@orbifly.com




FONTI E CREDITI :

   NOAA